Observations for RIETI, Italy (LIQN)

LIQN 191750Z 18008KT CAVOK 16/03 Q1025  
LIQN 191650Z 20004KT CAVOK 18/05 Q1025  
LIQN 191550Z 20008KT CAVOK 19/04 Q1024  
LIQN 191450Z 31006KT CAVOK 21/03 Q1024  
LIQN 191350Z 33008KT CAVOK 21/01 Q1024  
LIQN 191250Z 13004KT CAVOK 21/00 Q1025  
LIQN 191150Z VRB03KT CAVOK 20/02 Q1025  
LIQN 191050Z VRB02KT CAVOK 20/02 Q1026  
LIQN 190950Z VRB03KT CAVOK 18/04 Q1026  
LIQN 190850Z VRB02KT CAVOK 15/02 Q1027  
LIQN 190800Z VRB03KT CAVOK 14/03 Q1027